Time;durP1;ratioP1;P1;durP2;ratioP2;P2;SDS_P1;SDS_P2;PMS_P1;PMS_P2;Temp;Humidity;BMP_temperature;BMP_pressure;BME280_temperature;BME280_humidity;BME280_pressure;Samples;Min_cycle;Max_cycle;Signal;HPM_P1;HPM_P2
2023/07/12 00:01:55;;;;;;;14.50;12.90;;;;;;;14.76;100.00;97398.55;110116;1244;58834;-69
2023/07/12 00:04:29;;;;;;;17.10;12.80;;;;;;;14.69;100.00;97393.54;110071;1245;70853;-68
2023/07/12 00:07:00;;;;;;;16.10;13.60;;;;;;;14.65;100.00;97393.06;110076;1244;69256;-67
2023/07/12 00:09:32;;;;;;;14.30;12.20;;;;;;;14.61;100.00;97394.14;110086;1244;69347;-69
2023/07/12 00:12:02;;;;;;;14.10;11.60;;;;;;;14.58;100.00;97395.58;110145;1244;58947;-68
2023/07/12 00:14:36;;;;;;;16.20;14.40;;;;;;;14.58;100.00;97395.41;110101;1244;58980;-68
2023/07/12 00:17:10;;;;;;;16.10;12.90;;;;;;;14.59;100.00;97397.10;110079;1244;70551;-68
2023/07/12 00:19:44;;;;;;;19.50;14.40;;;;;;;14.59;100.00;97396.90;110052;1245;69187;-67
2023/07/12 00:22:17;;;;;;;17.80;13.60;;;;;;;14.60;100.00;97397.36;109880;1244;69313;-68
2023/07/12 00:24:50;;;;;;;16.30;14.60;;;;;;;14.61;100.00;97389.68;110135;1244;58932;-69
2023/07/12 00:27:21;;;;;;;22.80;17.30;;;;;;;14.64;100.00;97385.92;110078;1244;58927;-67
2023/07/12 00:29:54;;;;;;;20.80;17.30;;;;;;;14.68;100.00;97385.09;109852;1245;69912;-68
2023/07/12 00:32:31;;;;;;;18.50;15.00;;;;;;;14.68;100.00;97384.46;110111;1244;67594;-68
2023/07/12 00:35:04;;;;;;;16.50;14.30;;;;;;;14.69;100.00;97383.40;110167;1242;68753;-68
2023/07/12 00:37:38;;;;;;;17.10;15.30;;;;;;;14.70;100.00;97385.06;110133;1244;58871;-68
2023/07/12 00:40:46;;;;;;;18.00;15.20;;;;;;;14.71;100.00;97390.61;110083;1245;58964;-69
2023/07/12 00:43:26;;;;;;;21.50;17.00;;;;;;;14.69;100.00;97388.46;110075;1245;70617;-67
2023/07/12 00:46:05;;;;;;;24.10;17.80;;;;;;;14.68;100.00;97389.63;110082;1244;68195;-69
2023/07/12 00:48:36;;;;;;;24.50;18.20;;;;;;;14.67;100.00;97392.52;110088;1244;68609;-68
2023/07/12 00:51:46;;;;;;;15.30;13.40;;;;;;;14.66;100.00;97393.79;110131;1244;58921;-70
2023/07/12 00:54:26;;;;;;;17.00;14.90;;;;;;;14.66;100.00;97396.84;109878;1245;58881;-68
2023/07/12 00:57:03;;;;;;;20.60;16.80;;;;;;;14.64;100.00;97393.42;109822;1246;69807;-68
2023/07/12 00:59:34;;;;;;;18.20;15.60;;;;;;;14.63;100.00;97392.15;110062;1243;68419;-68
2023/07/12 01:02:15;;;;;;;19.90;15.60;;;;;;;14.61;100.00;97397.27;110070;1245;69148;-67
2023/07/12 01:04:50;;;;;;;20.10;16.50;;;;;;;14.60;100.00;97399.98;109971;1245;58934;-68
2023/07/12 01:07:24;;;;;;;22.40;18.40;;;;;;;14.59;100.00;97400.74;110081;1244;58827;-68
2023/07/12 01:09:55;;;;;;;19.00;16.00;;;;;;;14.59;100.00;97402.36;110105;1245;69686;-69
2023/07/12 01:12:30;;;;;;;20.70;17.20;;;;;;;14.59;100.00;97404.27;110075;1243;69378;-68
2023/07/12 01:15:01;;;;;;;16.30;14.40;;;;;;;14.58;100.00;97403.11;110141;1245;68762;-68
2023/07/12 01:17:36;;;;;;;18.30;15.90;;;;;;;14.57;100.00;97409.00;109846;1244;58898;-68
2023/07/12 01:20:12;;;;;;;17.50;14.40;;;;;;;14.56;100.00;97409.84;110037;1244;58875;-68
2023/07/12 01:22:56;;;;;;;19.80;16.70;;;;;;;14.53;100.00;97408.30;110083;1244;69852;-68
2023/07/12 01:25:46;;;;;;;;;;;;;;;14.50;100.00;97412.92;109858;1243;68502;-69
2023/07/12 01:28:21;;;;;;;16.20;13.40;;;;;;;14.47;100.00;97415.11;110074;1244;69270;-69
2023/07/12 01:30:54;;;;;;;19.10;15.20;;;;;;;14.46;100.00;97419.08;110090;1244;58937;-69
2023/07/12 01:33:31;;;;;;;18.50;15.00;;;;;;;14.44;100.00;97416.07;110147;1245;58898;-70
2023/07/12 01:36:02;;;;;;;16.70;13.50;;;;;;;14.41;100.00;97420.36;110154;1241;70648;-68
2023/07/12 01:38:35;;;;;;;16.30;12.80;;;;;;;14.38;100.00;97429.10;110061;1243;68441;-68
2023/07/12 01:41:07;;;;;;;17.00;13.40;;;;;;;14.34;100.00;97429.92;109930;1244;68538;-68
2023/07/12 01:43:38;;;;;;;18.00;14.70;;;;;;;14.34;100.00;97431.74;110090;1245;58869;-67
2023/07/12 01:46:08;;;;;;;17.10;14.30;;;;;;;14.32;100.00;97431.03;110075;1244;58840;-67
2023/07/12 01:48:40;;;;;;;16.50;14.20;;;;;;;14.28;100.00;97424.50;110102;1241;70628;-68
2023/07/12 01:51:19;;;;;;;17.40;14.00;;;;;;;14.28;100.00;97431.39;110102;1244;68796;-68
2023/07/12 01:53:51;;;;;;;19.20;14.00;;;;;;;14.25;100.00;97431.27;110114;1246;69643;-67
2023/07/12 01:56:22;;;;;;;17.10;13.70;;;;;;;14.22;100.00;97432.04;110121;1242;58944;-68
2023/07/12 01:58:54;;;;;;;17.90;14.70;;;;;;;14.21;100.00;97434.77;110161;1245;58927;-68
2023/07/12 02:01:27;;;;;;;16.80;13.60;;;;;;;14.18;100.00;97437.98;110081;1245;70428;-68
2023/07/12 02:03:58;;;;;;;19.80;16.40;;;;;;;14.16;100.00;97433.65;110143;1242;68630;-70
2023/07/12 02:06:31;;;;;;;18.70;15.30;;;;;;;14.14;100.00;97433.43;109958;1244;69429;-68
2023/07/12 02:09:05;;;;;;;18.70;16.30;;;;;;;14.11;100.00;97434.07;110057;1242;58898;-69
2023/07/12 02:11:37;;;;;;;18.20;15.00;;;;;;;14.08;100.00;97433.15;110154;1245;58846;-68
2023/07/12 02:14:10;;;;;;;21.20;16.70;;;;;;;14.07;100.00;97432.48;110061;1243;71170;-69
2023/07/12 02:16:41;;;;;;;22.90;17.70;;;;;;;14.10;100.00;97440.96;110045;1244;69286;-69
2023/07/12 02:19:14;;;;;;;21.50;16.90;;;;;;;14.09;100.00;97448.61;110060;1245;68363;-68
2023/07/12 02:21:47;;;;;;;20.70;16.80;;;;;;;14.08;100.00;97452.17;110060;1243;58915;-68
2023/07/12 02:24:19;;;;;;;21.00;16.60;;;;;;;14.06;100.00;97453.81;110110;1244;58941;-68
2023/07/12 02:26:50;;;;;;;19.30;15.90;;;;;;;14.03;100.00;97450.66;110129;1241;70598;-68
2023/07/12 02:29:22;;;;;;;17.00;13.70;;;;;;;14.01;100.00;97453.82;110040;1243;69370;-68
2023/07/12 02:31:54;;;;;;;16.60;13.50;;;;;;;14.00;100.00;97461.66;110066;1244;69317;-67
2023/07/12 02:34:26;;;;;;;18.20;14.00;;;;;;;13.98;100.00;97470.73;110125;1245;59002;-68
2023/07/12 02:37:00;;;;;;;16.90;14.40;;;;;;;13.97;100.00;97478.55;110111;1241;58871;-70
2023/07/12 02:39:31;;;;;;;14.80;13.10;;;;;;;13.93;100.00;97478.34;110219;1244;69855;-68
2023/07/12 02:42:02;;;;;;;17.30;14.40;;;;;;;13.90;100.00;97479.49;110049;1245;68500;-69
2023/07/12 02:44:33;;;;;;;17.70;15.40;;;;;;;13.89;100.00;97477.71;110081;1243;69648;-69
2023/07/12 02:47:02;;;;;;;17.60;14.60;;;;;;;13.86;100.00;97481.58;110058;1244;58906;-67
2023/07/12 02:49:31;;;;;;;18.00;14.70;;;;;;;13.85;100.00;97482.56;110214;1244;58927;-70
2023/07/12 02:52:04;;;;;;;;;;;;;;;13.82;100.00;97478.25;110148;1244;70007;-70
2023/07/12 02:54:35;;;;;;;13.60;11.30;;;;;;;13.79;100.00;97471.35;110086;1245;69287;-68
2023/07/12 02:57:07;;;;;;;15.50;12.80;;;;;;;13.75;100.00;97464.11;110102;1245;68534;-68
2023/07/12 02:59:37;;;;;;;17.10;14.20;;;;;;;13.67;100.00;97463.56;110136;1244;58937;-67
2023/07/12 03:02:11;;;;;;;16.30;13.60;;;;;;;13.58;100.00;97459.23;110054;1244;59321;-68
2023/07/12 03:04:44;;;;;;;15.40;12.30;;;;;;;13.56;100.00;97462.06;110123;1245;69643;-68
2023/07/12 03:07:17;;;;;;;14.30;11.50;;;;;;;13.54;100.00;97472.36;110134;1244;68436;-68
2023/07/12 03:09:48;;;;;;;14.10;11.90;;;;;;;13.54;100.00;97474.67;110094;1244;69258;-67
2023/07/12 03:12:19;;;;;;;16.60;13.30;;;;;;;13.56;100.00;97477.85;110016;1244;58873;-68
2023/07/12 03:14:50;;;;;;;17.20;13.50;;;;;;;13.58;100.00;97482.73;110122;1246;58875;-69
2023/07/12 03:17:21;;;;;;;17.90;14.40;;;;;;;13.60;100.00;97481.30;110209;1244;69856;-66
2023/07/12 03:19:51;;;;;;;18.50;15.90;;;;;;;13.65;100.00;97473.90;110082;1243;68982;-67
2023/07/12 03:22:21;;;;;;;18.60;15.50;;;;;;;13.74;100.00;97476.84;109814;1245;68342;-66
2023/07/12 03:24:51;;;;;;;20.20;17.00;;;;;;;13.78;100.00;97486.65;110088;1244;58893;-68
2023/07/12 03:27:22;;;;;;;20.20;15.40;;;;;;;13.85;100.00;97490.30;110031;1245;58882;-68
2023/07/12 03:29:52;;;;;;;20.10;15.60;;;;;;;13.93;100.00;97487.50;110102;1244;70552;-67
2023/07/12 03:32:24;;;;;;;19.70;16.40;;;;;;;14.02;100.00;97490.20;109995;1245;69278;-68
2023/07/12 03:34:55;;;;;;;18.10;15.70;;;;;;;14.09;100.00;97486.85;110111;1243;68832;-68
2023/07/12 03:37:25;;;;;;;16.60;14.80;;;;;;;14.16;100.00;97478.86;110100;1244;58866;-66
2023/07/12 03:39:55;;;;;;;18.20;15.20;;;;;;;14.20;100.00;97474.06;110076;1243;58849;-65
2023/07/12 03:42:26;;;;;;;18.20;14.70;;;;;;;14.24;100.00;97477.90;110134;1245;70482;-66
2023/07/12 03:44:56;;;;;;;15.60;13.60;;;;;;;14.25;100.00;97478.02;110207;1241;69265;-67
2023/07/12 03:47:27;;;;;;;16.10;12.90;;;;;;;14.24;100.00;97476.94;110152;1245;69130;-67
2023/07/12 03:49:57;;;;;;;14.60;12.80;;;;;;;14.24;100.00;97475.84;110152;1245;58885;-67
2023/07/12 03:52:26;;;;;;;16.00;13.00;;;;;;;14.26;100.00;97471.98;110088;1242;58943;-68
2023/07/12 03:54:56;;;;;;;16.70;13.80;;;;;;;14.31;100.00;97473.38;110081;1245;70182;-66
2023/07/12 03:57:25;;;;;;;16.90;13.70;;;;;;;14.37;100.00;97472.36;110135;1241;69892;-66
2023/07/12 03:59:56;;;;;;;14.20;12.60;;;;;;;14.44;100.00;97475.52;110175;1245;68678;-66
2023/07/12 04:02:26;;;;;;;15.70;12.10;;;;;;;14.51;100.00;97473.90;110082;1244;58914;-66
2023/07/12 04:05:00;;;;;;;14.70;13.00;;;;;;;14.65;100.00;97470.53;110166;1244;58898;-66
2023/07/12 04:07:29;;;;;;;;;;;;;;;14.71;100.00;97473.14;110181;1243;71194;-68
2023/07/12 04:10:00;;;;;;;13.50;11.80;;;;;;;14.80;100.00;97475.71;110094;1244;69232;-68
2023/07/12 04:12:30;;;;;;;14.80;12.80;;;;;;;14.88;100.00;97462.03;110219;1244;68345;-66
2023/07/12 04:15:00;;;;;;;14.50;13.00;;;;;;;14.96;100.00;97457.13;110061;1244;58965;-67
2023/07/12 04:17:30;;;;;;;17.30;15.30;;;;;;;15.06;100.00;97464.14;110134;1244;58896;-67
2023/07/12 04:19:59;;;;;;;18.70;15.30;;;;;;;15.16;100.00;97465.80;110184;1244;70443;-67
2023/07/12 04:22:29;;;;;;;16.10;14.40;;;;;;;15.28;100.00;97460.20;110069;1245;69171;-67
2023/07/12 04:24:59;;;;;;;16.20;14.10;;;;;;;15.45;100.00;97462.98;110137;1244;68993;-67
2023/07/12 04:27:28;;;;;;;20.20;15.60;;;;;;;15.57;100.00;97464.70;110066;1243;58850;-68
2023/07/12 04:29:58;;;;;;;14.30;12.80;;;;;;;15.72;100.00;97464.77;110164;1245;58885;-67
2023/07/12 04:32:29;;;;;;;14.90;12.70;;;;;;;15.88;100.00;97465.91;110184;1245;69788;-66
2023/07/12 04:34:59;;;;;;;14.20;12.70;;;;;;;16.09;100.00;97453.37;110086;1244;68501;-66
2023/07/12 04:37:28;;;;;;;16.10;13.40;;;;;;;16.32;100.00;97450.82;109815;1244;68722;-67
2023/07/12 04:39:58;;;;;;;;;;;;;;;16.46;100.00;97452.70;110149;1245;58966;-66
2023/07/12 04:42:28;;;;;;;;;;;;;;;16.58;100.00;97456.43;110133;1243;58900;-66
2023/07/12 04:44:57;;;;;;;14.30;12.50;;;;;;;16.69;100.00;97456.20;110182;1244;70965;-67
2023/07/12 04:47:27;;;;;;;13.30;11.40;;;;;;;16.82;100.00;97455.14;110146;1245;69324;-67
2023/07/12 04:50:02;;;;;;;13.70;12.10;;;;;;;16.94;100.00;97456.11;110130;1244;69848;-67
2023/07/12 04:52:35;;;;;;;12.30;11.00;;;;;;;17.10;100.00;97462.66;110122;1244;58903;-67
2023/07/12 04:55:19;;;;;;;12.60;11.20;;;;;;;17.24;100.00;97461.04;110109;1244;58866;-67
2023/07/12 04:57:49;;;;;;;13.60;11.50;;;;;;;17.43;100.00;97462.35;110203;1244;70000;-67
2023/07/12 05:00:23;;;;;;;12.10;10.80;;;;;;;17.58;100.00;97466.45;110106;1244;69744;-67
2023/07/12 05:03:03;;;;;;;11.60;10.40;;;;;;;17.75;100.00;97463.54;109990;1247;69747;-66
2023/07/12 05:05:34;;;;;;;12.90;11.50;;;;;;;17.90;100.00;97464.01;109819;1243;58967;-66
2023/07/12 05:08:05;;;;;;;14.50;12.40;;;;;;;18.05;100.00;97463.33;110139;1241;58907;-68
2023/07/12 05:10:36;;;;;;;12.60;11.30;;;;;;;18.22;100.00;97459.48;110262;1243;70874;-66
2023/07/12 05:13:05;;;;;;;11.50;10.30;;;;;;;18.52;100.00;97458.23;110030;1244;68251;-67
2023/07/12 05:15:34;;;;;;;13.30;10.50;;;;;;;18.90;100.00;97461.50;110142;1241;69869;-69
2023/07/12 05:18:06;;;;;;;13.10;11.70;;;;;;;19.24;100.00;97462.50;109893;1248;58940;-66
2023/07/12 05:20:36;;;;;;;12.10;10.90;;;;;;;19.64;100.00;97459.92;110204;1243;58950;-67
2023/07/12 05:23:06;;;;;;;11.20;10.00;;;;;;;19.98;100.00;97464.00;110144;1244;69853;-67
2023/07/12 05:25:35;;;;;;;;;;;;;;;20.38;100.00;97461.89;110047;1247;69249;-66
2023/07/12 05:28:05;;;;;;;11.30;9.50;;;;;;;20.73;99.92;97462.77;110032;1243;68553;-66
2023/07/12 05:30:34;;;;;;;10.70;9.50;;;;;;;21.18;100.00;97457.34;110163;1245;58966;-66
2023/07/12 05:33:03;;;;;;;;;;;;;;;21.49;93.49;97456.58;110301;1245;58859;-66
2023/07/12 05:35:33;;;;;;;12.10;10.60;;;;;;;21.61;88.12;97456.98;110116;1243;70632;-67
2023/07/12 05:38:03;;;;;;;10.00;9.00;;;;;;;21.80;91.68;97452.73;110186;1245;69744;-67
2023/07/12 05:40:32;;;;;;;12.30;10.50;;;;;;;22.01;92.75;97452.86;110133;1241;67666;-68
2023/07/12 05:43:01;;;;;;;;;;;;;;;22.09;92.12;97457.12;110178;1245;58927;-67
2023/07/12 05:45:31;;;;;;;11.30;9.40;;;;;;;22.12;90.37;97460.56;109972;1245;58885;-68
2023/07/12 05:48:00;;;;;;;12.20;10.90;;;;;;;22.11;89.47;97462.10;110032;1245;72005;-67
2023/07/12 05:50:29;;;;;;;;;;;;;;;22.08;87.73;97466.90;110248;1243;69311;-67
2023/07/12 05:52:58;;;;;;;12.40;11.10;;;;;;;21.93;87.55;97468.90;110139;1241;69679;-68
2023/07/12 05:55:28;;;;;;;12.30;10.90;;;;;;;21.71;88.14;97470.20;110146;1244;58872;-68
2023/07/12 05:57:57;;;;;;;12.90;11.60;;;;;;;21.59;89.81;97468.16;110189;1245;58886;-68
2023/07/12 06:00:31;;;;;;;11.70;10.50;;;;;;;21.40;90.74;97473.51;109999;1244;70616;-67
2023/07/12 06:03:01;;;;;;;10.20;8.90;;;;;;;21.45;90.90;97475.08;110136;1243;68821;-63
2023/07/12 06:05:31;;;;;;;12.40;10.80;;;;;;;21.58;89.97;97469.79;110091;1245;69612;-66
2023/07/12 06:08:01;;;;;;;12.10;9.20;;;;;;;21.75;90.73;97463.38;110190;1243;58903;-65
2023/07/12 06:10:29;;;;;;;10.40;9.40;;;;;;;21.87;88.28;97459.77;110075;1244;58896;-65
2023/07/12 06:12:59;;;;;;;11.60;10.30;;;;;;;22.02;89.20;97459.41;110083;1244;71181;-65
2023/07/12 06:15:28;;;;;;;10.20;9.20;;;;;;;22.07;88.28;97454.59;110152;1244;69312;-65
2023/07/12 06:17:58;;;;;;;11.70;9.50;;;;;;;22.36;88.17;97454.74;109874;1245;69878;-63
2023/07/12 06:20:28;;;;;;;10.70;9.20;;;;;;;22.64;86.15;97454.82;110239;1243;59285;-65
2023/07/12 06:22:57;;;;;;;;;;;;;;;22.86;82.48;97448.16;110169;1245;58880;-64
2023/07/12 06:25:26;;;;;;;10.10;9.00;;;;;;;23.14;81.64;97441.09;110136;1241;70988;-66
2023/07/12 06:27:55;;;;;;;10.20;9.20;;;;;;;23.46;80.22;97439.25;110136;1244;68665;-66
2023/07/12 06:30:25;;;;;;;9.80;8.80;;;;;;;23.85;78.33;97439.66;110121;1245;69897;-66
2023/07/12 06:32:54;;;;;;;9.80;8.60;;;;;;;24.20;76.43;97443.58;110143;1245;58861;-67
2023/07/12 06:35:23;;;;;;;9.30;8.30;;;;;;;24.42;72.17;97444.26;110182;1245;58878;-69
2023/07/12 06:37:52;;;;;;;9.10;7.50;;;;;;;24.70;71.03;97446.27;110179;1244;71211;-66
2023/07/12 06:40:21;;;;;;;10.00;8.70;;;;;;;24.92;69.80;97447.63;110263;1243;70144;-68
2023/07/12 06:42:51;;;;;;;8.70;7.80;;;;;;;25.37;68.92;97443.58;110192;1244;68605;-66
2023/07/12 06:45:21;;;;;;;9.70;7.90;;;;;;;25.63;66.20;97442.77;110152;1245;58874;-68
2023/07/12 06:47:50;;;;;;;;;;;;;;;26.08;65.64;97446.00;110204;1244;58894;-67
2023/07/12 06:50:19;;;;;;;10.00;8.40;;;;;;;26.16;63.45;97444.38;110110;1244;71625;-69
2023/07/12 06:52:48;;;;;;;9.20;7.70;;;;;;;26.51;63.30;97438.08;110031;1244;68424;-68
2023/07/12 06:55:17;;;;;;;;;;;;;;;26.94;65.31;97438.75;110115;1244;69299;-67
2023/07/12 06:57:46;;;;;;;10.20;7.90;;;;;;;27.34;62.75;97432.42;110209;1243;58939;-67
2023/07/12 07:00:15;;;;;;;;;;;;;;;27.51;59.29;97426.84;110165;1243;58875;-69
2023/07/12 07:02:44;;;;;;;8.60;7.60;;;;;;;27.54;57.71;97425.11;110056;1244;70199;-69
2023/07/12 07:05:14;;;;;;;8.30;7.30;;;;;;;27.33;56.92;97425.23;109914;1244;69824;-68
2023/07/12 07:07:42;;;;;;;;;;;;;;;27.09;58.63;97428.02;109962;1243;68523;-68
2023/07/12 07:10:12;;;;;;;8.30;7.00;;;;;;;27.45;57.62;97431.27;110161;1245;58966;-68
2023/07/12 07:12:42;;;;;;;8.10;7.30;;;;;;;27.70;57.33;97432.60;110125;1245;58870;-68
2023/07/12 07:15:11;;;;;;;7.50;6.80;;;;;;;27.88;56.38;97434.30;110176;1244;69424;-69
2023/07/12 07:17:41;;;;;;;6.80;6.10;;;;;;;28.12;54.58;97445.62;110147;1245;69129;-67
2023/07/12 07:20:11;;;;;;;7.10;6.40;;;;;;;28.06;53.53;97451.61;110117;1244;69230;-66
2023/07/12 07:22:40;;;;;;;8.60;6.40;;;;;;;28.17;53.56;97460.40;110187;1244;58909;-68
2023/07/12 07:25:09;;;;;;;6.40;5.80;;;;;;;28.55;51.52;97457.91;110123;1245;58879;-67
2023/07/12 07:27:48;;;;;;;6.10;5.50;;;;;;;28.87;51.20;97456.38;110096;1244;71639;-67
2023/07/12 07:30:18;;;;;;;6.70;6.10;;;;;;;29.14;49.25;97458.38;110154;1244;68794;-68
2023/07/12 07:32:47;;;;;;;6.80;6.10;;;;;;;29.36;49.83;97458.98;110204;1244;69559;-69
2023/07/12 07:35:17;;;;;;;6.60;5.80;;;;;;;29.62;49.25;97458.27;110161;1244;58868;-68
2023/07/12 07:37:48;;;;;;;6.90;6.20;;;;;;;29.82;48.28;97457.40;110094;1244;58944;-68
2023/07/12 07:40:18;;;;;;;6.90;5.40;;;;;;;30.01;47.61;97447.02;110159;1245;71169;-68
2023/07/12 07:42:47;;;;;;;7.50;6.60;;;;;;;30.19;47.29;97441.31;110182;1244;69840;-69
2023/07/12 07:45:16;;;;;;;7.40;6.70;;;;;;;30.02;46.26;97431.89;110194;1245;70008;-68
2023/07/12 07:47:44;;;;;;;;;;;;;;;29.81;47.64;97440.41;110146;1244;58870;-68
2023/07/12 07:50:13;;;;;;;6.30;5.60;;;;;;;29.87;46.67;97445.08;110160;1245;58865;-68
2023/07/12 07:52:43;;;;;;;6.90;6.20;;;;;;;29.91;46.43;97442.86;110144;1244;71015;-67
2023/07/12 07:55:12;;;;;;;6.30;5.70;;;;;;;30.04;46.53;97437.33;110205;1244;69131;-69
2023/07/12 07:57:41;;;;;;;6.10;5.50;;;;;;;30.33;46.25;97437.67;110140;1244;68193;-69
2023/07/12 08:00:13;;;;;;;6.70;5.30;;;;;;;30.50;44.28;97433.02;110113;1245;59368;-67
2023/07/12 08:02:43;;;;;;;5.90;5.30;;;;;;;30.91;44.50;97433.91;110147;1245;58848;-67
2023/07/12 08:05:14;;;;;;;6.10;5.60;;;;;;;31.14;43.71;97434.23;110141;1245;70619;-68
2023/07/12 08:07:46;;;;;;;7.10;5.90;;;;;;;31.23;42.10;97432.56;110203;1245;70214;-69
2023/07/12 08:10:17;;;;;;;6.00;5.50;;;;;;;30.63;41.92;97431.56;110183;1244;68384;-68
2023/07/12 08:12:48;;;;;;;6.20;5.10;;;;;;;30.61;42.08;97433.46;110135;1244;58941;-68
2023/07/12 08:15:18;;;;;;;5.70;4.90;;;;;;;31.10;41.93;97434.71;110147;1244;58947;-67
2023/07/12 08:17:47;;;;;;;6.20;5.60;;;;;;;31.38;39.67;97428.59;110262;1245;70451;-68
2023/07/12 08:20:17;;;;;;;6.60;5.80;;;;;;;31.14;39.47;97433.43;110134;1245;69585;-67
2023/07/12 08:22:47;;;;;;;5.60;5.00;;;;;;;31.12;39.95;97432.05;110203;1245;69899;-68
2023/07/12 08:25:16;;;;;;;6.00;5.40;;;;;;;31.04;39.88;97433.08;110078;1244;58855;-67
2023/07/12 08:27:45;;;;;;;6.60;6.00;;;;;;;30.96;39.61;97425.11;110102;1245;58888;-67
2023/07/12 08:30:14;;;;;;;7.00;5.30;;;;;;;30.71;41.08;97419.21;110173;1244;70302;-69
2023/07/12 08:32:44;;;;;;;7.20;5.10;;;;;;;31.00;41.60;97420.60;110241;1245;69848;-69
2023/07/12 08:35:13;;;;;;;6.50;5.90;;;;;;;30.88;42.15;97419.87;110100;1245;69098;-68
2023/07/12 08:37:42;;;;;;;5.80;5.30;;;;;;;30.82;41.95;97416.91;110139;1245;58870;-68
2023/07/12 08:40:14;;;;;;;7.50;5.80;;;;;;;31.23;41.39;97416.09;110175;1245;58893;-68
2023/07/12 08:42:45;;;;;;;5.20;4.70;;;;;;;31.07;40.71;97414.17;110165;1244;70902;-69
2023/07/12 08:45:16;;;;;;;5.60;5.00;;;;;;;31.03;41.04;97418.05;110111;1245;69688;-70
2023/07/12 08:47:48;;;;;;;6.60;5.80;;;;;;;31.22;40.99;97420.63;110116;1242;69108;-69
2023/07/12 08:50:18;;;;;;;5.60;5.10;;;;;;;31.17;39.09;97427.71;109710;1245;588227;-71
2023/07/12 08:52:48;;;;;;;5.50;5.00;;;;;;;30.92;38.94;97426.27;110192;1245;58853;-72
2023/07/12 08:55:19;;;;;;;7.50;5.60;;;;;;;31.41;39.58;97420.08;110149;1246;70572;-70
2023/07/12 08:58:03;;;;;;;6.20;5.60;;;;;;;31.74;39.56;97415.02;110142;1245;69762;-70
2023/07/12 09:00:34;;;;;;;6.20;5.00;;;;;;;32.08;39.49;97413.69;110104;1245;69888;-70
2023/07/12 09:03:03;;;;;;;5.70;5.10;;;;;;;32.44;39.06;97413.05;110112;1244;58946;-70
2023/07/12 09:05:33;;;;;;;5.50;5.00;;;;;;;32.68;37.89;97411.03;110126;1245;58889;-70
2023/07/12 09:08:08;;;;;;;7.70;5.90;;;;;;;32.80;36.59;97407.38;110110;1245;69807;-71
2023/07/12 09:10:48;;;;;;;5.60;5.10;;;;;;;32.78;36.84;97403.58;110155;1245;69060;-71
2023/07/12 09:13:16;;;;;;;;;;;;;;;32.64;35.86;97397.20;110145;1244;69373;-71
2023/07/12 09:15:51;;;;;;;5.90;5.10;;;;;;;32.98;37.06;97396.86;110134;1246;58921;-71
2023/07/12 09:18:29;;;;;;;5.30;4.80;;;;;;;33.15;35.28;97392.04;110106;1244;58943;-70
2023/07/12 09:21:10;;;;;;;5.40;4.50;;;;;;;33.15;34.85;97386.20;110130;1244;70524;-69
2023/07/12 09:23:42;;;;;;;7.00;5.80;;;;;;;33.18;35.34;97381.13;110113;1245;69292;-71
2023/07/12 09:26:19;;;;;;;5.10;4.60;;;;;;;33.48;34.86;97383.54;110101;1245;69395;-72
2023/07/12 09:28:50;;;;;;;5.80;5.20;;;;;;;33.26;34.78;97385.93;110144;1248;58901;-71
2023/07/12 09:31:28;;;;;;;6.30;5.40;;;;;;;33.19;35.43;97380.83;109883;1245;58882;-69
2023/07/12 09:34:03;;;;;;;5.80;5.30;;;;;;;33.20;35.33;97382.78;110110;1245;70582;-70
2023/07/12 09:36:39;;;;;;;6.40;5.80;;;;;;;32.32;35.46;97388.77;110075;1245;69432;-69
2023/07/12 09:39:11;;;;;;;9.10;5.40;;;;;;;32.21;34.98;97387.44;110090;1244;69172;-69
2023/07/12 09:41:50;;;;;;;5.90;5.30;;;;;;;31.81;36.14;97386.30;109788;1246;58946;-70
2023/07/12 09:44:19;;;;;;;5.90;5.10;;;;;;;31.80;36.71;97387.39;110123;1244;58952;-70
2023/07/12 09:47:02;;;;;;;5.60;4.70;;;;;;;32.30;36.75;97390.58;110109;1242;70532;-70
2023/07/12 09:49:47;;;;;;;5.40;4.90;;;;;;;32.91;35.62;97391.65;110120;1245;69220;-70
2023/07/12 09:52:34;;;;;;;5.10;4.60;;;;;;;33.34;35.15;97392.29;110056;1245;69756;-69
2023/07/12 09:55:30;;;;;;;5.90;5.40;;;;;;;33.73;35.29;97390.12;110116;1242;58893;-70
2023/07/12 09:58:09;;;;;;;5.00;4.50;;;;;;;33.96;34.87;97388.16;110136;1244;58903;-71
2023/07/12 10:01:16;;;;;;;7.20;5.60;;;;;;;34.60;33.39;97387.53;110131;1245;71198;-70
2023/07/12 10:03:52;;;;;;;6.30;5.00;;;;;;;34.66;31.80;97375.98;110000;1245;70121;-69
2023/07/12 10:06:32;;;;;;;5.60;5.00;;;;;;;34.64;32.23;97371.46;110094;1245;69888;-71
2023/07/12 10:09:07;;;;;;;6.10;5.50;;;;;;;34.42;32.21;97367.27;110124;1244;58951;-71
2023/07/12 10:11:43;;;;;;;6.70;6.10;;;;;;;34.59;31.42;97360.49;110123;1241;58873;-70
2023/07/12 10:14:16;;;;;;;6.30;5.70;;;;;;;34.43;31.95;97359.71;109984;1245;71155;-70
2023/07/12 10:16:52;;;;;;;6.00;4.80;;;;;;;34.25;31.62;97361.98;110100;1242;69412;-70
2023/07/12 10:19:29;;;;;;;6.70;5.30;;;;;;;33.73;32.31;97348.47;110107;1241;69257;-70
2023/07/12 10:22:02;;;;;;;5.30;4.80;;;;;;;33.72;33.14;97345.12;109762;1244;58928;-70
2023/07/12 10:24:44;;;;;;;6.90;6.00;;;;;;;33.48;34.11;97353.46;110133;1245;58926;-72
2023/07/12 10:27:20;;;;;;;5.70;5.10;;;;;;;33.36;34.26;97350.91;110107;1245;70566;-70
2023/07/12 10:30:19;;;;;;;6.40;5.80;;;;;;;33.34;33.98;97345.52;110145;1243;68918;-69
2023/07/12 10:32:57;;;;;;;6.00;5.50;;;;;;;32.61;33.93;97345.30;110103;1243;69892;-72
2023/07/12 10:35:41;;;;;;;6.10;5.40;;;;;;;32.03;34.74;97341.66;110163;1245;59329;-69
2023/07/12 10:38:16;;;;;;;6.00;4.70;;;;;;;31.50;35.10;97339.86;110138;1243;58903;-72
2023/07/12 10:41:08;;;;;;;6.60;5.30;;;;;;;31.28;36.24;97341.23;110113;1245;71218;-70
2023/07/12 10:43:44;;;;;;;5.20;4.70;;;;;;;31.60;34.80;97338.55;110110;1245;68437;-70
2023/07/12 10:46:23;;;;;;;5.90;4.70;;;;;;;31.69;34.48;97336.37;110123;1245;69864;-69
2023/07/12 10:48:55;;;;;;;6.00;4.70;;;;;;;31.74;34.48;97342.27;110098;1245;58973;-71
2023/07/12 10:51:26;;;;;;;6.90;5.00;;;;;;;31.97;34.58;97343.70;110129;1245;59188;-70
2023/07/12 10:53:55;;;;;;;6.50;5.80;;;;;;;32.16;33.96;97337.30;110086;1245;71087;-70
2023/07/12 10:56:26;;;;;;;7.40;5.90;;;;;;;31.93;35.06;97336.92;110077;1246;68753;-70
2023/07/12 10:58:58;;;;;;;5.30;4.80;;;;;;;31.22;37.21;97340.48;110072;1245;70228;-70
2023/07/12 11:01:49;;;;;;;5.50;4.90;;;;;;;31.11;36.88;97342.34;110118;1245;58948;-69
2023/07/12 11:04:27;;;;;;;5.50;5.00;;;;;;;31.10;36.86;97345.28;110092;1245;58862;-71
2023/07/12 11:07:01;;;;;;;6.60;5.40;;;;;;;31.23;37.53;97344.48;110122;1246;70604;-70
2023/07/12 11:09:48;;;;;;;5.80;4.80;;;;;;;31.26;36.43;97338.51;110164;1243;69197;-73
2023/07/12 11:12:31;;;;;;;6.80;6.10;;;;;;;31.80;36.44;97339.12;110122;1250;69893;-70
2023/07/12 11:15:06;;;;;;;6.00;5.40;;;;;;;31.78;36.44;97338.39;110089;1246;58898;-71
2023/07/12 11:17:48;;;;;;;6.60;6.00;;;;;;;32.13;35.44;97337.04;110145;1245;58833;-70
2023/07/12 11:20:30;;;;;;;8.20;6.10;;;;;;;31.86;35.36;97340.41;110120;1245;71140;-71
2023/07/12 11:23:01;;;;;;;8.20;6.20;;;;;;;31.90;35.02;97331.13;110107;1244;68503;-70
2023/07/12 11:25:29;;;;;;;5.40;4.90;;;;;;;31.77;34.89;97330.20;110090;1246;69905;-69
2023/07/12 11:28:04;;;;;;;6.20;5.00;;;;;;;32.13;35.43;97328.98;110092;1245;58937;-69
2023/07/12 11:30:34;;;;;;;5.90;5.10;;;;;;;32.46;34.37;97327.34;110115;1245;59291;-69
2023/07/12 11:33:12;;;;;;;6.20;5.40;;;;;;;32.40;34.30;97328.52;110114;1246;71204;-70
2023/07/12 11:35:56;;;;;;;5.90;5.20;;;;;;;32.39;33.52;97323.14;110109;1245;68651;-71
2023/07/12 11:38:29;;;;;;;6.60;5.90;;;;;;;32.90;33.98;97321.36;110163;1244;70240;-71
2023/07/12 11:41:20;;;;;;;6.30;5.60;;;;;;;32.81;34.02;97320.46;110166;1247;58944;-70
2023/07/12 11:44:04;;;;;;;6.90;5.90;;;;;;;32.65;34.70;97320.40;110154;1246;58936;-71